Time;durP1;ratioP1;P1;durP2;ratioP2;P2;SDS_P1;SDS_P2;PMS_P1;PMS_P2;Temp;Humidity;BMP_temperature;BMP_pressure;BME280_temperature;BME280_humidity;BME280_pressure;Samples;Min_cycle;Max_cycle;Signal;HPM_P1;HPM_P2
2022/11/13 00:01:16;;;;;;;13.57;10.70;;;;;;;19.11;59.66;102101.28;5060115;28;20045;-80
2022/11/13 00:04:02;;;;;;;9.48;8.40;;;;;;;19.11;60.05;102100.44;5059252;28;20052;-79
2022/11/13 00:06:48;;;;;;;12.07;9.75;;;;;;;19.11;59.76;102103.13;5060428;28;20052;-78
2022/11/13 00:09:39;;;;;;;12.70;9.98;;;;;;;19.09;59.64;102089.81;5056070;28;20064;-78
2022/11/13 00:12:25;;;;;;;11.13;9.93;;;;;;;19.09;59.10;102097.84;5054401;28;20064;-78
2022/11/13 00:15:11;;;;;;;12.35;9.68;;;;;;;19.10;59.34;102098.72;5059108;28;20076;-78
2022/11/13 00:18:00;;;;;;;11.98;10.07;;;;;;;19.08;59.48;102093.47;5060226;28;20516;-78
2022/11/13 00:20:46;;;;;;;12.00;10.15;;;;;;;19.09;59.13;102094.31;5060583;28;20041;-78
2022/11/13 00:23:33;;;;;;;13.98;11.13;;;;;;;19.08;59.10;102096.16;5060291;28;20053;-78
2022/11/13 00:26:23;;;;;;;12.25;9.50;;;;;;;19.07;59.04;102088.16;5059755;28;20053;-79
2022/11/13 00:29:09;;;;;;;12.02;10.40;;;;;;;19.07;59.02;102097.06;5059626;28;20524;-78
2022/11/13 00:31:54;;;;;;;12.00;9.07;;;;;;;19.07;59.20;102090.84;5059999;28;20041;-78
2022/11/13 00:34:40;;;;;;;12.50;10.45;;;;;;;19.07;59.40;102080.97;5059925;28;20443;-78
2022/11/13 00:37:33;;;;;;;15.10;10.77;;;;;;;19.05;59.19;102077.53;5059992;28;20049;-78
2022/11/13 00:40:18;;;;;;;11.77;9.85;;;;;;;19.05;59.12;102065.94;5059869;28;20289;-78
2022/11/13 00:43:04;;;;;;;10.27;9.20;;;;;;;19.04;59.13;102065.09;5059566;28;20056;-77
2022/11/13 00:45:50;;;;;;;14.85;9.90;;;;;;;19.04;59.06;102057.03;5060070;28;20068;-77
2022/11/13 00:48:36;;;;;;;12.23;9.50;;;;;;;19.03;58.98;102048.09;5058660;28;20428;-78
2022/11/13 00:51:23;;;;;;;12.10;9.85;;;;;;;19.04;59.15;102059.72;5059776;28;20048;-77
2022/11/13 00:54:09;;;;;;;12.50;10.13;;;;;;;19.03;59.13;102069.56;5060254;28;20064;-77
2022/11/13 00:56:54;;;;;;;11.50;9.25;;;;;;;19.03;58.93;102071.41;5059626;28;20049;-78
2022/11/13 00:59:40;;;;;;;11.77;10.18;;;;;;;19.03;59.20;102069.56;5059526;28;20059;-78
2022/11/13 01:02:26;;;;;;;12.50;9.32;;;;;;;19.03;59.03;102071.41;5059167;28;20053;-79
2022/11/13 01:05:12;;;;;;;12.50;9.25;;;;;;;19.02;58.83;102064.31;5063388;28;20056;-78
2022/11/13 01:07:58;;;;;;;13.15;10.05;;;;;;;19.02;59.18;102075.06;5063009;28;20143;-79
2022/11/13 01:10:47;;;;;;;11.68;10.13;;;;;;;19.02;58.71;102083.09;5059432;28;20053;-79
2022/11/13 01:13:40;;;;;;;11.57;9.32;;;;;;;19.01;58.85;102081.38;5056426;28;20053;-79
2022/11/13 01:16:27;;;;;;;10.85;9.50;;;;;;;19.01;58.86;102076.03;5062915;28;20060;-78
2022/11/13 01:19:13;;;;;;;11.48;9.35;;;;;;;19.02;58.98;102070.53;5063048;28;20063;-79
2022/11/13 01:21:58;;;;;;;11.85;9.40;;;;;;;19.01;59.13;102070.66;5061807;28;20052;-79
2022/11/13 01:24:44;;;;;;;11.50;9.65;;;;;;;19.00;58.86;102069.78;5062985;28;20531;-79
2022/11/13 01:27:30;;;;;;;11.82;9.05;;;;;;;19.01;58.81;102070.66;5062824;28;20215;-78
2022/11/13 01:30:16;;;;;;;10.82;9.02;;;;;;;19.00;58.66;102066.25;5062586;28;20056;-79
2022/11/13 01:33:02;;;;;;;11.13;9.52;;;;;;;18.99;58.42;102051.94;5062982;28;20079;-78
2022/11/13 01:35:48;;;;;;;11.70;8.82;;;;;;;18.99;58.69;102057.31;5062671;28;20056;-79
2022/11/13 01:38:34;;;;;;;11.52;9.30;;;;;;;18.99;58.83;102056.47;5062840;28;20076;-78
2022/11/13 01:41:32;;;;;;;12.48;9.63;;;;;;;18.98;58.44;102052.91;5062530;28;20056;-78
2022/11/13 01:44:18;;;;;;;10.15;8.57;;;;;;;18.99;58.54;102057.31;5062606;28;20060;-78
2022/11/13 01:47:04;;;;;;;10.55;8.35;;;;;;;18.98;58.79;102063.66;5062768;28;20546;-77
2022/11/13 01:49:53;;;;;;;10.10;8.32;;;;;;;18.99;58.70;102056.47;5061558;28;20060;-78
2022/11/13 01:52:41;;;;;;;11.38;9.15;;;;;;;18.97;58.76;102043.16;5062668;28;20056;-77
2022/11/13 01:55:27;;;;;;;10.90;8.77;;;;;;;18.98;58.52;102038.66;5062219;28;20055;-78
2022/11/13 01:58:13;;;;;;;10.20;8.45;;;;;;;18.98;58.60;102038.66;5062452;28;20400;-78
2022/11/13 02:00:59;;;;;;;11.38;8.52;;;;;;;18.97;58.11;102036.94;5061940;28;20535;-77
2022/11/13 02:03:45;;;;;;;11.07;9.30;;;;;;;18.96;58.30;102036.06;5061121;28;20071;-77
2022/11/13 02:06:41;;;;;;;13.05;9.27;;;;;;;18.97;58.47;102039.63;5061893;28;20084;-79
2022/11/13 02:09:32;;;;;;;10.30;8.13;;;;;;;18.96;58.58;102030.69;5060808;28;20059;-79
2022/11/13 02:12:31;;;;;;;10.55;8.25;;;;;;;18.96;58.60;102033.38;5055994;28;20428;-79
2022/11/13 02:15:22;;;;;;;10.05;8.43;;;;;;;18.97;58.41;102034.25;5043841;28;20068;-79
2022/11/13 02:18:10;;;;;;;10.55;7.97;;;;;;;18.97;58.38;102026.19;5062081;28;20397;-79
2022/11/13 02:21:05;;;;;;;10.20;8.68;;;;;;;18.96;58.38;102024.47;5061546;28;20052;-79
2022/11/13 02:24:17;;;;;;;12.07;8.32;;;;;;;18.96;58.26;102021.81;5061748;28;20064;-79
2022/11/13 02:27:14;;;;;;;9.70;7.90;;;;;;;18.96;58.55;102035.22;5062058;28;20056;-78
2022/11/13 02:30:13;;;;;;;14.43;8.57;;;;;;;18.95;58.39;102023.59;5061567;28;20515;-78
2022/11/13 02:33:17;;;;;;;10.80;8.23;;;;;;;18.94;58.22;102019.19;5061622;28;20391;-77
2022/11/13 02:36:06;;;;;;;13.48;8.40;;;;;;;18.95;58.21;102020.06;5061666;28;20432;-79
2022/11/13 02:38:54;;;;;;;11.55;8.35;;;;;;;18.95;57.95;102014.69;5061562;28;20507;-79
2022/11/13 02:41:40;;;;;;;10.13;8.13;;;;;;;18.93;58.07;102006.75;5061274;28;20072;-78
2022/11/13 02:44:26;;;;;;;11.63;8.05;;;;;;;18.93;58.15;102011.25;5061618;28;20056;-78
2022/11/13 02:47:12;;;;;;;9.73;8.50;;;;;;;18.94;58.20;102029.06;5061535;28;20408;-78
2022/11/13 02:49:58;;;;;;;9.73;7.50;;;;;;;18.93;58.31;102036.25;5061482;28;20057;-79
2022/11/13 02:52:44;;;;;;;9.98;7.90;;;;;;;18.94;58.30;102032.63;5061422;28;20064;-77
2022/11/13 02:55:30;;;;;;;10.65;8.20;;;;;;;18.93;58.12;102022.84;5061182;28;20060;-77
2022/11/13 02:58:16;;;;;;;10.80;7.95;;;;;;;18.93;58.05;102027.34;5061692;28;20067;-78
2022/11/13 03:01:03;;;;;;;10.10;8.10;;;;;;;18.92;58.00;102029.19;5061133;28;20056;-78
2022/11/13 03:03:48;;;;;;;10.10;7.93;;;;;;;18.93;58.05;102030.03;5061139;28;20428;-77
2022/11/13 03:06:43;;;;;;;11.30;8.23;;;;;;;18.91;57.72;102030.13;5061110;28;20421;-78
2022/11/13 03:09:29;;;;;;;10.57;8.52;;;;;;;18.92;58.05;102030.97;5060952;28;20403;-78
2022/11/13 03:12:15;;;;;;;8.30;7.47;;;;;;;18.93;57.98;102024.66;5059358;28;20056;-78
2022/11/13 03:15:01;;;;;;;8.73;7.28;;;;;;;18.91;58.11;102027.44;5052781;28;20048;-78
2022/11/13 03:17:46;;;;;;;9.50;7.32;;;;;;;18.91;58.02;102021.22;5060319;28;20056;-77
2022/11/13 03:20:35;;;;;;;11.38;8.18;;;;;;;18.91;57.97;102029.25;5060767;28;20056;-78
2022/11/13 03:23:21;;;;;;;8.63;7.32;;;;;;;18.91;58.04;102022.06;5061142;28;20064;-78
2022/11/13 03:26:10;;;;;;;10.10;7.53;;;;;;;18.91;57.84;102010.47;5060422;28;20060;-78
2022/11/13 03:28:55;;;;;;;8.98;7.03;;;;;;;18.91;57.80;102011.34;5060417;28;20401;-78
2022/11/13 03:31:41;;;;;;;9.93;7.72;;;;;;;18.90;57.72;102006.09;5060546;28;20060;-77
2022/11/13 03:34:27;;;;;;;8.82;7.25;;;;;;;18.90;57.77;102008.75;5060834;28;20056;-77
2022/11/13 03:37:13;;;;;;;10.32;7.43;;;;;;;18.89;57.72;102012.41;5059522;28;20055;-78
2022/11/13 03:39:59;;;;;;;8.52;7.15;;;;;;;18.90;57.77;102023.03;5060342;28;20065;-78
2022/11/13 03:42:45;;;;;;;9.82;7.88;;;;;;;18.88;57.68;102008.00;5060023;28;20480;-77
2022/11/13 03:45:31;;;;;;;9.63;7.18;;;;;;;18.88;57.61;102000.84;5060515;28;20072;-77
2022/11/13 03:48:17;;;;;;;9.05;6.97;;;;;;;18.89;57.77;101999.00;5060257;28;20412;-77
2022/11/13 03:51:03;;;;;;;10.82;7.68;;;;;;;18.88;57.72;102003.50;5060320;28;20052;-77
2022/11/13 03:53:48;;;;;;;8.38;6.93;;;;;;;18.88;57.32;102005.31;5060407;28;20059;-78
2022/11/13 03:56:34;;;;;;;10.52;7.80;;;;;;;18.87;57.49;102001.75;5060372;28;20519;-77
2022/11/13 03:59:20;;;;;;;9.15;7.53;;;;;;;18.87;57.36;102007.13;5060011;28;20056;-78
2022/11/13 04:02:06;;;;;;;10.63;7.30;;;;;;;18.87;57.08;102011.63;5057070;28;20515;-78
2022/11/13 04:04:52;;;;;;;8.82;6.93;;;;;;;18.86;57.49;102017.97;5060233;28;20063;-78
2022/11/13 04:07:37;;;;;;;7.72;6.60;;;;;;;18.87;57.43;102023.22;5059242;28;20071;-78
2022/11/13 04:10:24;;;;;;;9.13;6.65;;;;;;;18.88;57.42;102021.41;5059969;28;20052;-78
2022/11/13 04:13:10;;;;;;;10.20;6.47;;;;;;;18.86;57.42;102009.94;5056168;28;20044;-78
2022/11/13 04:15:55;;;;;;;8.70;6.65;;;;;;;18.86;57.50;102010.78;5051430;28;20056;-78
2022/11/13 04:18:41;;;;;;;7.63;6.43;;;;;;;18.86;57.30;102009.94;5060197;28;20064;-79
2022/11/13 04:21:27;;;;;;;8.27;6.65;;;;;;;18.86;57.34;102004.56;5059955;28;20500;-80
2022/11/13 04:24:13;;;;;;;10.75;6.72;;;;;;;18.85;57.23;102006.38;5060199;28;20055;-79
2022/11/13 04:26:59;;;;;;;10.20;7.18;;;;;;;18.85;57.63;102016.25;5053074;28;20068;-79
2022/11/13 04:29:45;;;;;;;7.80;6.28;;;;;;;18.85;57.57;102010.91;5060015;28;20079;-79
2022/11/13 04:32:31;;;;;;;8.15;6.15;;;;;;;18.86;57.52;102015.28;5059877;28;20056;-79
2022/11/13 04:35:17;;;;;;;9.15;6.63;;;;;;;18.85;57.43;102016.25;5059854;28;20167;-78
2022/11/13 04:38:03;;;;;;;7.18;5.32;;;;;;;18.85;57.47;102010.91;5063878;28;20147;-79
2022/11/13 04:42:47;;;;;;;8.10;5.88;;;;;;;18.84;57.50;102011.84;5064097;28;20059;-78
2022/11/13 04:43:55;;;;;;;8.88;6.13;;;;;;;18.84;57.57;102011.84;5063714;28;20056;-78
2022/11/13 04:46:41;;;;;;;8.02;6.50;;;;;;;18.84;57.33;102010.03;5063517;28;20404;-77
2022/11/13 04:49:27;;;;;;;10.50;6.90;;;;;;;18.84;57.34;102018.09;5063379;28;20058;-78
2022/11/13 04:52:13;;;;;;;9.60;5.95;;;;;;;18.84;57.44;102017.19;5064418;28;20111;-79
2022/11/13 04:54:59;;;;;;;8.40;6.60;;;;;;;18.84;57.48;102025.25;5063586;28;20056;-79
2022/11/13 04:57:45;;;;;;;9.43;6.15;;;;;;;18.84;57.53;102025.25;5063383;28;20484;-79
2022/11/13 05:00:31;;;;;;;5.93;5.18;;;;;;;18.83;57.40;102019.03;5063257;28;20063;-79
2022/11/13 05:03:17;;;;;;;10.93;7.13;;;;;;;18.83;57.38;102005.63;5056724;28;20408;-78
2022/11/13 05:06:08;;;;;;;7.75;6.45;;;;;;;18.83;57.47;101991.34;5063077;28;20063;-77
2022/11/13 05:08:53;;;;;;;7.15;6.03;;;;;;;18.83;57.49;101994.88;5062999;28;20060;-76
2022/11/13 05:11:39;;;;;;;8.80;5.53;;;;;;;18.84;57.53;101990.38;5043359;28;20069;-78
2022/11/13 05:14:25;;;;;;;8.75;6.85;;;;;;;18.83;57.20;101988.66;5044887;28;20067;-78
2022/11/13 05:17:12;;;;;;;7.70;5.53;;;;;;;18.84;57.26;101977.84;5056012;28;20056;-79
2022/11/13 05:19:58;;;;;;;9.13;5.90;;;;;;;18.83;57.23;101981.47;5063305;28;20404;-78
2022/11/13 05:22:43;;;;;;;7.72;5.78;;;;;;;18.83;57.23;101985.97;5061928;28;20400;-85
2022/11/13 05:25:30;;;;;;;8.70;6.38;;;;;;;18.84;57.55;101996.63;5063367;28;20056;-78
2022/11/13 05:28:16;;;;;;;8.93;6.30;;;;;;;18.83;57.31;102010.13;5062752;28;20052;-77
2022/11/13 05:31:06;;;;;;;8.00;5.70;;;;;;;18.83;57.17;102013.66;5062764;28;20907;-78
2022/11/13 05:33:52;;;;;;;7.18;5.93;;;;;;;18.83;57.27;102007.44;5062829;28;20381;-79
2022/11/13 05:36:38;;;;;;;7.78;5.75;;;;;;;18.83;57.29;102015.47;5062821;28;20096;-79
2022/11/13 05:39:24;;;;;;;7.63;5.20;;;;;;;18.81;57.28;101999.50;5062769;28;20064;-79
2022/11/13 05:42:10;;;;;;;9.85;5.63;;;;;;;18.82;57.34;102011.94;5062727;28;20484;-79
2022/11/13 05:44:55;;;;;;;9.25;6.00;;;;;;;18.82;57.21;102003.03;5062893;28;20503;-79
2022/11/13 05:47:41;;;;;;;8.20;5.40;;;;;;;18.82;57.26;102011.09;5061352;28;20060;-79
2022/11/13 05:50:27;;;;;;;7.20;5.65;;;;;;;18.81;57.36;102020.09;5062506;28;20562;-78
2022/11/13 05:53:13;;;;;;;6.80;5.70;;;;;;;18.82;57.23;102016.44;5062596;28;20060;-79
2022/11/13 05:56:14;;;;;;;6.53;5.03;;;;;;;18.80;57.15;102007.63;5062274;28;20052;-78
2022/11/13 05:59:02;;;;;;;11.07;5.88;;;;;;;18.81;57.12;102018.28;5062264;28;20056;-78
2022/11/13 06:01:48;;;;;;;8.00;5.75;;;;;;;18.81;56.92;102020.09;5059955;28;20064;-78
2022/11/13 06:04:34;;;;;;;8.32;5.82;;;;;;;18.80;57.27;102021.94;5062348;28;20059;-79
2022/11/13 06:07:19;;;;;;;8.70;5.25;;;;;;;18.80;57.07;102016.56;5062233;28;20389;-79
2022/11/13 06:10:06;;;;;;;8.73;5.65;;;;;;;18.80;57.14;102015.69;5062088;28;20052;-78
2022/11/13 06:12:53;;;;;;;10.30;6.03;;;;;;;18.78;57.08;102016.66;5060736;28;20392;-79
2022/11/13 06:15:39;;;;;;;7.80;5.90;;;;;;;18.79;57.02;102017.50;5061869;28;20052;-79
2022/11/13 06:18:24;;;;;;;8.38;5.85;;;;;;;18.79;56.97;102017.50;5051465;28;20507;-79
2022/11/13 06:21:17;;;;;;;6.18;4.82;;;;;;;18.78;57.15;102024.69;5062014;28;20515;-79
2022/11/13 06:24:04;;;;;;;8.40;5.65;;;;;;;18.77;57.13;102028.34;5061891;28;20044;-79
2022/11/13 06:26:50;;;;;;;7.10;5.57;;;;;;;18.78;56.98;102027.38;5061162;28;20075;-78
2022/11/13 06:29:36;;;;;;;9.63;5.50;;;;;;;18.78;57.11;102031.88;5061713;28;20060;-78
2022/11/13 06:32:21;;;;;;;8.50;5.78;;;;;;;18.78;56.98;102029.19;5061795;28;20060;-79
2022/11/13 06:35:07;;;;;;;7.63;5.07;;;;;;;18.77;57.17;102024.81;5061676;28;20504;-79
2022/11/13 06:37:54;;;;;;;7.13;5.70;;;;;;;18.77;57.09;102020.28;5061569;28;20428;-78
2022/11/13 06:40:40;;;;;;;6.50;4.90;;;;;;;18.77;57.11;102022.97;5061721;28;20064;-78
2022/11/13 06:43:27;;;;;;;7.05;5.18;;;;;;;18.76;57.00;102037.38;5060611;28;20060;-78
2022/11/13 06:46:19;;;;;;;7.93;5.78;;;;;;;18.76;57.13;102041.88;5061362;28;20408;-79
2022/11/13 06:49:04;;;;;;;8.05;5.57;;;;;;;18.76;56.89;102048.09;5061077;28;20056;-78
2022/11/13 06:51:50;;;;;;;7.90;5.40;;;;;;;18.76;57.00;102044.56;5061464;28;20052;-78
2022/11/13 06:54:36;;;;;;;9.48;5.13;;;;;;;18.76;56.90;102053.47;5061250;28;20401;-78
2022/11/13 06:57:22;;;;;;;6.65;4.63;;;;;;;18.76;56.90;102049.91;5061360;28;20063;-78
2022/11/13 07:00:08;;;;;;;6.65;4.60;;;;;;;18.75;56.81;102032.94;5060366;28;20052;-78
2022/11/13 07:02:54;;;;;;;8.55;5.32;;;;;;;18.76;56.81;102044.56;5055800;28;20076;-78
2022/11/13 07:05:40;;;;;;;6.78;4.60;;;;;;;18.74;56.88;102050.00;5060763;28;20056;-79
2022/11/13 07:08:26;;;;;;;8.75;5.60;;;;;;;18.74;56.50;102046.47;5061087;28;20079;-79
2022/11/13 07:11:18;;;;;;;8.25;5.45;;;;;;;18.75;56.71;102058.91;5061140;28;20404;-78
2022/11/13 07:14:04;;;;;;;7.82;4.88;;;;;;;18.74;56.78;102058.03;5055795;28;20059;-78
2022/11/13 07:16:50;;;;;;;6.45;4.75;;;;;;;18.74;56.84;102046.47;5056239;28;20047;-77
2022/11/13 07:19:54;;;;;;;6.72;4.35;;;;;;;18.75;56.96;102053.53;5060922;28;20068;-77
2022/11/13 07:22:40;;;;;;;7.28;5.63;;;;;;;18.73;56.68;102061.69;5060591;28;20770;-78
2022/11/13 07:25:27;;;;;;;8.40;4.95;;;;;;;18.75;56.59;102064.25;5060670;28;20056;-77
2022/11/13 07:28:12;;;;;;;8.05;5.10;;;;;;;18.74;56.77;102068.78;5060854;28;20055;-79
2022/11/13 07:30:59;;;;;;;7.13;4.97;;;;;;;18.74;56.88;102071.47;5060578;28;20491;-79
2022/11/13 07:33:47;;;;;;;6.85;4.13;;;;;;;18.74;56.81;102067.91;5059852;28;20067;-77
2022/11/13 07:36:33;;;;;;;7.05;4.68;;;;;;;18.73;56.77;102069.75;5060559;28;20056;-78
2022/11/13 07:39:19;;;;;;;6.90;4.60;;;;;;;18.73;56.83;102077.78;5061177;28;20107;-78
2022/11/13 07:42:05;;;;;;;8.18;4.47;;;;;;;18.74;56.89;102081.34;5060825;28;20060;-78
2022/11/13 07:44:50;;;;;;;6.55;4.65;;;;;;;18.73;56.93;102075.09;5061215;28;20052;-77
2022/11/13 07:47:40;;;;;;;8.13;3.95;;;;;;;18.73;56.97;102077.78;5061024;28;20067;-76
2022/11/13 07:50:33;;;;;;;6.00;4.30;;;;;;;18.72;56.90;102072.53;5060606;28;20115;-78
2022/11/13 07:53:20;;;;;;;6.93;4.68;;;;;;;18.73;57.00;102072.44;5060692;28;20056;-78
2022/11/13 07:56:08;;;;;;;5.93;4.10;;;;;;;18.73;56.91;102066.19;5060276;28;20056;-78
2022/11/13 07:58:54;;;;;;;6.22;4.15;;;;;;;18.74;56.54;102073.28;5060248;28;20424;-78
2022/11/13 08:01:40;;;;;;;6.97;4.47;;;;;;;18.72;56.59;102067.16;5058708;28;20064;-78
2022/11/13 08:04:27;;;;;;;7.03;4.80;;;;;;;18.73;56.83;102074.25;5060156;28;20060;-78
2022/11/13 08:07:12;;;;;;;8.57;4.55;;;;;;;18.73;56.77;102077.78;5060266;28;20068;-78
2022/11/13 08:09:58;;;;;;;9.48;4.90;;;;;;;18.71;56.21;102068.97;5060822;28;20060;-79
2022/11/13 08:12:45;;;;;;;8.38;4.30;;;;;;;18.73;56.88;102074.25;5061711;28;20084;-78
2022/11/13 08:15:31;;;;;;;8.38;4.63;;;;;;;18.73;56.01;102075.09;5064396;28;20056;-77
2022/11/13 08:18:17;;;;;;;12.38;9.63;;;;;;;18.69;54.90;102059.28;5059940;28;20405;-80
2022/11/13 08:21:04;;;;;;;17.20;11.68;;;;;;;18.59;54.67;102066.16;5044608;28;20413;-79
2022/11/13 08:23:56;;;;;;;16.67;12.73;;;;;;;18.52;53.77;102063.03;5044363;28;20042;-79
2022/11/13 08:26:42;;;;;;;15.75;12.10;;;;;;;18.43;53.89;102077.88;5044709;28;20061;-79
2022/11/13 08:29:28;;;;;;;14.20;11.90;;;;;;;18.33;53.90;102073.19;5044450;28;20057;-78
2022/11/13 08:32:15;;;;;;;17.50;12.68;;;;;;;18.28;54.11;102073.47;5043844;28;20053;-78
2022/11/13 08:35:00;;;;;;;15.30;12.18;;;;;;;18.24;54.11;102064.75;5043732;28;20045;-78
2022/11/13 08:37:46;;;;;;;15.18;12.55;;;;;;;18.22;54.53;102069.31;5044477;28;20045;-80
2022/11/13 08:40:33;;;;;;;14.55;11.50;;;;;;;18.21;54.69;102070.28;5044388;28;20049;-79
2022/11/13 08:43:18;;;;;;;13.82;10.50;;;;;;;18.23;54.78;102072.88;5044367;28;20046;-79
2022/11/13 08:46:04;;;;;;;13.90;10.45;;;;;;;18.22;54.43;102065.78;5043688;28;20516;-78
2022/11/13 08:48:50;;;;;;;13.15;10.80;;;;;;;18.21;54.20;102064.06;5043716;28;20057;-78
2022/11/13 08:51:36;;;;;;;12.05;9.48;;;;;;;18.15;54.21;102064.44;5044114;28;20485;-79
2022/11/13 08:54:22;;;;;;;13.65;9.38;;;;;;;18.13;54.21;102063.69;5037201;28;20068;-79
2022/11/13 08:57:08;;;;;;;13.75;10.32;;;;;;;18.10;54.42;102064.72;5043813;28;20061;-80
2022/11/13 08:59:53;;;;;;;12.80;9.23;;;;;;;18.09;54.51;102065.69;5037128;28;20045;-80
2022/11/13 09:02:39;;;;;;;10.23;8.20;;;;;;;18.09;54.59;102071.03;5039038;28;20065;-79
2022/11/13 09:05:25;;;;;;;11.25;8.40;;;;;;;18.12;54.69;102072.69;5058831;28;20064;-78
2022/11/13 09:08:11;;;;;;;9.77;6.78;;;;;;;18.18;55.58;102085.69;5063620;28;20080;-78
2022/11/13 09:11:02;;;;;;;8.25;6.32;;;;;;;18.24;56.08;102086.19;5063626;28;20064;-78
2022/11/13 09:13:48;;;;;;;7.50;6.20;;;;;;;18.29;56.03;102091.25;5059167;28;20056;-78
2022/11/13 09:16:38;;;;;;;11.38;6.38;;;;;;;18.32;56.17;102082.19;5063980;28;20060;-79
2022/11/13 09:19:24;;;;;;;8.70;5.90;;;;;;;18.37;56.19;102088.13;5056395;28;20059;-79
2022/11/13 09:22:11;;;;;;;7.45;5.35;;;;;;;18.39;56.25;102094.22;5043289;28;20064;-78
2022/11/13 09:24:56;;;;;;;6.82;5.15;;;;;;;18.42;56.17;102096.72;5043457;28;20532;-79
2022/11/13 09:27:42;;;;;;;7.05;5.13;;;;;;;18.44;55.91;102098.38;5043254;28;20073;-78
2022/11/13 09:30:29;;;;;;;8.70;5.20;;;;;;;18.46;56.13;102079.50;5043324;28;20076;-78
2022/11/13 09:33:15;;;;;;;9.38;5.03;;;;;;;18.47;56.22;102083.88;5042761;28;20515;-78
2022/11/13 09:36:01;;;;;;;6.65;4.70;;;;;;;18.49;56.18;102090.03;5042061;28;20060;-77
2022/11/13 09:38:47;;;;;;;6.10;4.55;;;;;;;18.48;56.19;102086.50;5042899;28;20056;-78
2022/11/13 09:41:53;;;;;;;7.25;4.43;;;;;;;18.50;56.28;102089.06;5042250;28;20060;-77
2022/11/13 09:45:20;;;;;;;6.15;4.47;;;;;;;18.52;56.34;102087.16;5036783;28;20061;-77
2022/11/13 09:48:19;;;;;;;6.07;3.85;;;;;;;18.52;56.31;102065.72;5001918;28;20061;-79
2022/11/13 09:51:30;;;;;;;7.53;4.82;;;;;;;18.52;56.27;102068.41;5001514;28;20576;-79
2022/11/13 09:54:16;;;;;;;6.88;4.15;;;;;;;18.53;56.35;102070.97;5001536;28;20069;-78
2022/11/13 09:57:21;;;;;;;9.93;4.75;;;;;;;18.54;56.64;102072.69;4995827;28;20062;-77
2022/11/13 10:00:18;;;;;;;7.28;4.78;;;;;;;18.55;56.74;102065.50;4988703;28;20061;-79
2022/11/13 10:03:42;;;;;;;6.85;3.90;;;;;;;18.56;56.80;102067.25;4996419;28;20065;-80
2022/11/13 10:07:19;;;;;;;6.10;4.55;;;;;;;18.57;56.81;102076.16;4989792;28;20454;-79
2022/11/13 10:10:36;;;;;;;6.10;4.25;;;;;;;18.57;56.89;102068.97;4899158;29;20076;-80
2022/11/13 10:13:31;;;;;;;5.63;3.60;;;;;;;18.57;57.00;102066.28;4903177;29;20056;-83
2022/11/13 10:16:28;;;;;;;7.30;4.40;;;;;;;18.58;56.94;102068.00;4900051;29;20162;-79
2022/11/13 10:19:27;;;;;;;8.10;4.60;;;;;;;18.58;56.59;102073.34;4903799;29;20063;-79
2022/11/13 10:22:44;;;;;;;9.05;4.95;;;;;;;18.58;56.33;102067.13;4936193;29;20194;-79
2022/11/13 10:25:34;;;;;;;8.90;4.90;;;;;;;18.57;55.63;102066.28;4961871;28;20059;-79
2022/11/13 10:28:23;;;;;;;6.72;4.85;;;;;;;18.56;55.96;102061.88;4956364;28;20627;-79
2022/11/13 10:31:39;;;;;;;10.60;5.50;;;;;;;18.57;55.99;102060.91;4962645;28;20558;-81
2022/11/13 10:34:25;;;;;;;18.17;6.18;;;;;;;18.57;56.64;102055.56;4956661;28;20163;-79
2022/11/13 10:37:29;;;;;;;11.38;6.20;;;;;;;18.59;54.77;102058.97;4961420;28;20078;-79
2022/11/13 10:40:25;;;;;;;;;;;;;;;18.58;53.99;102054.59;4958874;28;20241;-76
2022/11/13 10:43:23;;;;;;;10.93;5.35;;;;;;;18.59;55.55;102061.66;4961206;28;19922;-77
2022/11/13 10:46:19;;;;;;;10.10;5.93;;;;;;;18.60;55.32;102058.03;4977175;28;20404;-77
2022/11/13 10:49:20;;;;;;;12.77;6.60;;;;;;;18.60;53.85;102050.00;5061233;28;20051;-78
2022/11/13 10:52:24;;;;;;;10.07;6.00;;;;;;;18.61;55.51;102051.72;5061147;28;20071;-77
2022/11/13 10:55:36;;;;;;;8.48;5.28;;;;;;;18.60;56.40;102039.28;5061262;28;20052;-80
2022/11/13 10:58:22;;;;;;;9.18;5.15;;;;;;;18.62;56.39;102033.78;5062037;28;20056;-80
2022/11/13 11:01:26;;;;;;;10.32;6.88;;;;;;;18.61;54.65;102030.25;5062221;28;20064;-83
2022/11/13 11:04:22;;;;;;;9.30;5.57;;;;;;;18.64;56.42;102015.81;5055935;28;20068;-81
2022/11/13 11:07:17;;;;;;;14.85;5.70;;;;;;;18.64;56.72;102015.81;5061862;28;20068;-87
2022/11/13 11:10:31;;;;;;;48.72;7.30;;;;;;;18.66;56.82;102014.72;5055613;28;20056;-87
2022/11/13 11:13:22;;;;;;;38.78;8.50;;;;;;;18.66;56.07;102013.88;5058525;28;20598;-91
2022/11/13 11:16:13;;;;;;;19.70;5.65;;;;;;;18.66;56.33;102019.22;5061023;28;20187;-89
2022/11/13 11:19:07;;;;;;;14.95;5.55;;;;;;;18.66;56.79;102000.47;5081815;28;20400;-88
2022/11/13 11:22:03;;;;;;;12.88;5.43;;;;;;;18.67;56.63;102003.03;5039793;28;20052;-88
2022/11/13 11:25:18;;;;;;;15.88;5.70;;;;;;;18.67;56.09;102004.84;5053913;28;20444;-88
2022/11/13 11:28:26;;;;;;;10.45;5.20;;;;;;;18.67;55.67;102000.34;5046921;28;20184;-90
2022/11/13 11:31:29;;;;;;;8.57;4.72;;;;;;;18.67;56.30;102004.84;5040444;28;20149;-91
2022/11/13 11:34:30;;;;;;;12.02;5.20;;;;;;;18.68;57.35;101998.56;5062000;28;20059;-91
2022/11/13 11:37:21;;;;;;;17.23;5.20;;;;;;;18.68;57.56;101988.69;5041263;28;20406;-88
2022/11/13 11:40:13;;;;;;;7.40;5.00;;;;;;;18.68;57.55;101982.47;5055241;28;20145;-89
2022/11/13 11:43:11;;;;;;;10.57;5.40;;;;;;;18.69;57.39;101978.81;5053864;28;20090;-90
2022/11/13 11:45:57;;;;;;;7.78;5.22;;;;;;;18.69;57.39;101965.41;5054666;28;20172;-86
2022/11/13 11:48:42;;;;;;;13.10;5.15;;;;;;;18.70;57.37;101965.31;5040980;28;20141;-88
2022/11/13 11:51:30;;;;;;;12.13;4.65;;;;;;;18.71;57.67;101963.50;5055509;28;20599;-88
2022/11/13 11:54:39;;;;;;;11.00;5.35;;;;;;;18.72;57.50;101962.56;5061617;28;20420;-88
2022/11/13 12:02:21;;;;;;;11.40;4.38;;;;;;;18.73;57.66;101957.06;5060306;28;20051;-89
2022/11/13 12:05:19;;;;;;;10.27;5.25;;;;;;;18.74;57.15;101945.38;5043961;28;20064;-87
2022/11/13 12:08:16;;;;;;;10.27;5.70;;;;;;;18.78;56.58;101940.66;5061829;28;20056;-79
2022/11/13 12:11:20;;;;;;;10.38;4.38;;;;;;;18.80;56.83;101944.13;5062641;28;20507;-86
2022/11/13 12:14:14;;;;;;;9.20;5.75;;;;;;;18.80;57.08;101940.56;5054064;28;20052;-90
2022/11/13 12:17:12;;;;;;;9.98;5.32;;;;;;;18.81;57.06;101951.22;5061929;28;20408;-91
2022/11/13 12:20:16;;;;;;;9.00;4.55;;;;;;;18.80;57.21;101940.56;5056405;28;20052;-92
2022/11/13 12:23:10;;;;;;;9.13;5.28;;;;;;;18.80;56.67;101945.91;5041829;28;20539;-87
2022/11/13 12:26:07;;;;;;;10.93;5.82;;;;;;;18.80;57.05;101937.88;5041183;28;20061;-89
2022/11/13 12:29:13;;;;;;;8.43;4.53;;;;;;;18.80;57.01;101935.19;5035500;28;20061;-92
2022/11/13 12:32:15;;;;;;;10.90;5.32;;;;;;;18.80;57.23;101921.78;5035090;28;20405;-88
2022/11/13 12:35:10;;;;;;;11.05;5.55;;;;;;;18.80;57.42;101911.03;5034268;28;20066;-84
2022/11/13 12:38:16;;;;;;;13.00;5.75;;;;;;;18.80;56.84;101909.25;5043797;28;20052;-91
2022/11/13 12:41:31;;;;;;;7.72;5.45;;;;;;;18.80;57.52;101908.38;5036022;28;20056;-90
2022/11/13 12:44:26;;;;;;;12.00;5.30;;;;;;;18.82;57.57;101893.91;5041515;28;20520;-89
2022/11/13 12:47:15;;;;;;;8.80;5.45;;;;;;;18.81;57.60;101899.38;5034375;28;20057;-90
2022/11/13 12:50:26;;;;;;;10.60;4.38;;;;;;;18.82;57.51;101879.63;5040672;28;20056;-85
2022/11/13 12:53:25;;;;;;;8.02;4.38;;;;;;;18.82;57.78;101876.94;5040453;28;20528;-86
2022/11/13 12:56:18;;;;;;;11.02;5.00;;;;;;;18.82;57.77;101868.91;5035181;28;20505;-85
2022/11/13 12:59:16;;;;;;;12.93;5.18;;;;;;;18.83;58.03;101871.47;5045299;28;20523;-85
2022/11/13 13:02:34;;;;;;;11.18;4.78;;;;;;;18.83;58.10;101868.78;5041564;28;20516;-84
2022/11/13 13:05:55;;;;;;;7.28;4.95;;;;;;;18.83;58.15;101865.25;5045330;28;20400;-86
2022/11/13 13:09:04;;;;;;;7.68;5.45;;;;;;;18.83;58.21;101862.56;5045461;28;20064;-84
2022/11/13 13:12:20;;;;;;;10.90;5.97;;;;;;;18.85;59.08;101864.19;5043810;28;20056;-84
2022/11/13 13:15:14;;;;;;;6.85;5.55;;;;;;;18.85;58.96;101863.34;4983582;28;20162;-83